Time;durP1;ratioP1;P1;durP2;ratioP2;P2;SDS_P1;SDS_P2;PMS_P1;PMS_P2;Temp;Humidity;BMP_temperature;BMP_pressure;BME280_temperature;BME280_humidity;BME280_pressure;Samples;Min_cycle;Max_cycle;Signal;HPM_P1;HPM_P2
2021/07/19 00:04:23;;;;;;;7.25;5.93;;;;;17.00;101746.00;;;;10442107;28;20202;-75
2021/07/19 00:09:25;;;;;;;6.90;5.90;;;;;16.90;101740.00;;;;10425100;28;20624;-75
2021/07/19 00:14:27;;;;;;;7.43;6.17;;;;;16.90;101737.00;;;;10424985;28;20641;-75
2021/07/19 00:19:29;;;;;;;6.30;5.47;;;;;16.80;101738.00;;;;10441373;28;20191;-75
2021/07/19 00:24:32;;;;;;;8.93;6.53;;;;;16.70;101732.00;;;;10448033;28;20208;-75
2021/07/19 00:29:33;;;;;;;6.83;6.03;;;;;16.60;101734.00;;;;10465417;28;20214;-75
2021/07/19 00:34:35;;;;;;;7.70;6.10;;;;;16.60;101735.00;;;;10465368;28;20202;-75
2021/07/19 00:39:37;;;;;;;6.33;5.73;;;;;16.60;101732.00;;;;10465308;28;20192;-75
2021/07/19 00:44:39;;;;;;;5.87;5.23;;;;;16.50;101733.00;;;;10448474;28;20209;-75
2021/07/19 00:49:44;;;;;;;7.17;5.80;;;;;16.40;101727.00;;;;10448370;28;20738;-75
2021/07/19 00:54:47;;;;;;;8.37;6.47;;;;;16.30;101721.00;;;;10448337;28;20189;-75
2021/07/19 00:59:51;;;;;;;9.57;6.47;;;;;16.30;101713.00;;;;10481088;28;20185;-75
2021/07/19 01:04:55;;;;;;;7.93;6.37;;;;;16.30;101714.00;;;;10448141;28;20181;-75
2021/07/19 01:09:57;;;;;;;10.77;6.17;;;;;16.30;101718.00;;;;10480704;28;20267;-75
2021/07/19 01:15:00;;;;;;;9.80;6.37;;;;;16.10;101714.00;;;;10447368;28;20240;-75
2021/07/19 01:20:05;;;;;;;8.80;6.63;;;;;16.00;101713.00;;;;10447704;28;20208;-75
2021/07/19 01:25:19;;;;;;;8.73;6.53;;;;;16.00;101711.00;;;;10452905;28;20197;-75
2021/07/19 01:30:24;;;;;;;6.90;6.00;;;;;15.90;101711.00;;;;10447354;28;20221;-75
2021/07/19 01:35:27;;;;;;;7.70;6.90;;;;;15.90;101705.00;;;;10444616;28;20244;-75
2021/07/19 01:40:31;;;;;;;10.00;6.90;;;;;15.90;101702.00;;;;10463278;28;20182;-75
2021/07/19 01:45:34;;;;;;;7.47;6.37;;;;;15.90;101704.00;;;;10446601;28;20297;-75
2021/07/19 01:50:38;;;;;;;8.37;6.87;;;;;15.90;101699.00;;;;10463308;28;20217;-74
2021/07/19 01:55:52;;;;;;;7.57;6.83;;;;;15.80;101700.00;;;;10450029;28;20190;-75
2021/07/19 02:00:57;;;;;;;7.90;6.60;;;;;15.80;101701.00;;;;10405869;28;20256;-75
2021/07/19 02:06:05;;;;;;;8.63;6.87;;;;;15.70;101706.00;;;;10404862;28;20214;-75
2021/07/19 02:11:09;;;;;;;10.03;7.10;;;;;15.70;101715.00;;;;10404742;28;20190;-75
2021/07/19 02:16:12;;;;;;;7.57;6.87;;;;;15.60;101711.00;;;;10420700;28;20187;-75
2021/07/19 02:21:20;;;;;;;7.73;6.33;;;;;15.60;101712.00;;;;10437329;28;20194;-75
2021/07/19 02:26:40;;;;;;;8.37;6.60;;;;;15.50;101704.00;;;;10436443;28;20214;-75
2021/07/19 02:31:44;;;;;;;7.80;7.00;;;;;15.50;101717.00;;;;10404864;28;20198;-75
2021/07/19 02:36:48;;;;;;;7.20;6.50;;;;;15.50;101709.00;;;;10437217;28;20194;-75
2021/07/19 02:41:51;;;;;;;7.80;7.00;;;;;15.30;101713.00;;;;10437042;28;20240;-75
2021/07/19 02:46:56;;;;;;;8.03;7.23;;;;;15.30;101717.00;;;;10420691;28;20214;-75
2021/07/19 02:51:59;;;;;;;8.97;7.87;;;;;15.30;101711.00;;;;10436770;28;20193;-75
2021/07/19 02:57:02;;;;;;;10.93;7.03;;;;;15.30;101703.00;;;;10420427;28;20642;-75
2021/07/19 03:02:12;;;;;;;8.57;7.03;;;;;15.30;101699.00;;;;10420320;28;20273;-75
2021/07/19 03:07:19;;;;;;;8.00;7.27;;;;;15.20;101697.00;;;;10426305;28;20208;-75
2021/07/19 03:12:26;;;;;;;8.07;7.27;;;;;15.20;101699.00;;;;10427879;28;20649;-75
2021/07/19 03:17:29;;;;;;;9.23;7.37;;;;;15.10;101702.00;;;;10427106;28;20607;-75
2021/07/19 03:22:37;;;;;;;11.60;8.07;;;;;15.10;101700.00;;;;10464276;28;20190;-75
2021/07/19 03:28:00;;;;;;;12.30;8.33;;;;;15.00;101690.00;;;;10470655;28;20275;-75
2021/07/19 03:33:04;;;;;;;11.70;8.83;;;;;15.00;101695.00;;;;10426280;28;20589;-75
2021/07/19 03:38:07;;;;;;;11.97;9.33;;;;;15.00;101682.00;;;;10460367;28;20692;-75
2021/07/19 03:43:33;;;;;;;12.53;10.17;;;;;15.00;101691.00;;;;10459870;28;20669;-75
2021/07/19 03:49:07;;;;;;;13.50;10.13;;;;;15.00;101698.00;;;;10442213;28;20194;-75
2021/07/19 03:54:08;;;;;;;11.17;10.00;;;;;15.00;101697.00;;;;10477748;28;20197;-75
2021/07/19 03:59:14;;;;;;;15.67;9.70;;;;;15.10;101708.00;;;;10466512;28;20189;-74
2021/07/19 04:04:29;;;;;;;9.73;8.30;;;;;15.10;101692.00;;;;10449965;28;20194;-75
2021/07/19 04:09:33;;;;;;;10.60;8.00;;;;;15.00;101687.00;;;;10449965;28;20219;-75
2021/07/19 04:14:39;;;;;;;11.27;9.47;;;;;15.10;101696.00;;;;10465847;28;20221;-75
2021/07/19 04:19:44;;;;;;;12.87;9.83;;;;;15.20;101687.00;;;;10466391;28;20240;-75
2021/07/19 04:24:46;;;;;;;12.10;10.63;;;;;15.30;101691.00;;;;10443915;28;20198;-75
2021/07/19 04:29:50;;;;;;;13.83;10.57;;;;;15.40;101685.00;;;;10456909;28;20210;-75
2021/07/19 04:34:54;;;;;;;15.90;11.63;;;;;15.60;101698.00;;;;10424009;28;20301;-75
2021/07/19 04:39:57;;;;;;;17.80;10.67;;;;;15.70;101702.00;;;;10423189;28;20592;-76
2021/07/19 04:45:01;;;;;;;16.53;11.30;;;;;15.80;101715.00;;;;10439976;28;20202;-75
2021/07/19 04:50:03;;;;;;;13.03;10.73;;;;;15.90;101712.00;;;;10456473;28;20214;-75
2021/07/19 04:55:24;;;;;;;14.50;11.33;;;;;16.10;101718.00;;;;10425022;28;20240;-75
2021/07/19 05:00:29;;;;;;;15.70;10.63;;;;;16.30;101727.00;;;;10423230;28;20195;-75
2021/07/19 05:05:32;;;;;;;17.30;12.37;;;;;16.50;101713.00;;;;10439144;28;20281;-76
2021/07/19 05:10:34;;;;;;;14.53;12.33;;;;;16.90;101699.00;;;;10406591;28;20226;-76
2021/07/19 05:15:40;;;;;;;18.83;13.03;;;;;17.10;101707.00;;;;10422664;28;20198;-75
2021/07/19 05:20:42;;;;;;;16.83;12.50;;;;;17.40;101719.00;;;;10439004;28;20590;-76
2021/07/19 05:25:43;;;;;;;19.50;13.17;;;;;17.60;101716.00;;;;10438901;28;20734;-76
2021/07/19 05:30:48;;;;;;;20.47;13.67;;;;;17.90;101731.00;;;;10421354;28;20221;-75
2021/07/19 05:35:51;;;;;;;16.40;12.75;;;;;18.30;101736.00;;;;10405340;28;20268;-76
2021/07/19 05:40:53;;;;;;;16.15;12.15;;;;;18.60;101735.00;;;;10422541;28;20638;-76
2021/07/19 05:45:54;;;;;;;16.10;12.93;;;;;19.00;101740.00;;;;10446638;28;20210;-75
2021/07/19 05:50:57;;;;;;;15.15;11.32;;;;;19.50;101755.00;;;;10457381;28;20237;-75
2021/07/19 05:55:59;;;;;;;14.95;10.30;;;;;19.90;101754.00;;;;10411980;28;20631;-75
2021/07/19 06:01:02;;;;;;;13.32;9.73;;;;;20.20;101749.00;;;;10429422;28;20190;-75
2021/07/19 06:06:08;;;;;;;14.23;10.73;;;;;20.50;101745.00;;;;10445967;28;20228;-75
2021/07/19 06:11:09;;;;;;;12.13;10.20;;;;;20.80;101751.00;;;;10475242;28;20213;-75
2021/07/19 06:16:11;;;;;;;13.70;9.40;;;;;21.10;101752.00;;;;10405073;28;20198;-75
2021/07/19 06:21:13;;;;;;;12.75;9.20;;;;;21.50;101760.00;;;;10428942;28;20212;-75
2021/07/19 06:26:15;;;;;;;13.07;10.10;;;;;21.60;101759.00;;;;10446864;28;20201;-75
2021/07/19 06:31:17;;;;;;;11.57;8.63;;;;;21.80;101758.00;;;;10436877;28;20246;-75
2021/07/19 06:36:19;;;;;;;11.57;8.88;;;;;21.90;101760.00;;;;10419748;28;20743;-75
2021/07/19 06:41:20;;;;;;;12.13;8.48;;;;;22.10;101762.00;;;;10438214;28;20186;-75
2021/07/19 06:46:22;;;;;;;10.32;7.82;;;;;22.40;101762.00;;;;10489235;28;20246;-75
2021/07/19 06:51:24;;;;;;;8.98;8.07;;;;;22.60;101766.00;;;;10503519;28;20736;-76
2021/07/19 06:56:27;;;;;;;12.18;7.55;;;;;22.90;101764.00;;;;10418005;28;20198;-75
2021/07/19 07:01:29;;;;;;;9.82;7.57;;;;;23.20;101763.00;;;;10444371;28;20256;-76
2021/07/19 07:06:31;;;;;;;9.80;6.95;;;;;23.50;101773.00;;;;10446102;28;20205;-75
2021/07/19 07:11:33;;;;;;;8.40;6.20;;;;;23.90;101774.00;;;;10460909;28;20202;-75
2021/07/19 07:16:35;;;;;;;6.15;5.53;;;;;24.40;101762.00;;;;10430136;28;20865;-75
2021/07/19 07:21:37;;;;;;;7.78;5.68;;;;;24.50;101770.00;;;;10443764;28;20198;-75
2021/07/19 07:26:39;;;;;;;10.75;6.05;;;;;24.70;101758.00;;;;10494892;28;20206;-75
2021/07/19 07:31:41;;;;;;;6.72;5.05;;;;;24.80;101754.00;;;;10443362;28;20179;-76
2021/07/19 07:36:43;;;;;;;6.53;5.47;;;;;24.90;101751.00;;;;10426681;28;20277;-76
2021/07/19 07:41:44;;;;;;;6.47;4.95;;;;;25.00;101744.00;;;;10442793;28;20198;-76
2021/07/19 07:46:46;;;;;;;8.68;5.43;;;;;25.30;101750.00;;;;10442415;28;20198;-76
2021/07/19 07:51:48;;;;;;;6.75;4.30;;;;;25.40;101744.00;;;;10469984;28;20398;-76
2021/07/19 07:56:50;;;;;;;7.10;4.85;;;;;26.10;101745.00;;;;10425913;28;20671;-75
2021/07/19 08:02:03;;;;;;;7.15;3.92;;;;;26.30;101742.00;;;;10409606;28;20268;-76
2021/07/19 08:07:06;;;;;;;8.32;3.85;;;;;26.50;101738.00;;;;10408988;28;20869;-76
2021/07/19 08:12:08;;;;;;;7.50;4.00;;;;;27.20;101735.00;;;;10442266;28;20191;-76
2021/07/19 08:17:10;;;;;;;6.30;3.67;;;;;27.70;101732.00;;;;10425250;28;20650;-76
2021/07/19 08:22:13;;;;;;;7.63;4.15;;;;;28.00;101731.00;;;;10445839;28;20190;-75
2021/07/19 08:27:15;;;;;;;5.13;3.55;;;;;26.30;101745.00;;;;10452211;28;20213;-75
2021/07/19 08:32:17;;;;;;;6.80;4.40;;;;;25.30;101730.00;;;;10440976;28;20206;-76
2021/07/19 08:37:25;;;;;;;6.55;4.10;;;;;25.70;101726.00;;;;10424830;28;20186;-76
2021/07/19 08:42:26;;;;;;;5.25;3.88;;;;;26.70;101728.00;;;;10440626;28;20232;-76
2021/07/19 08:47:28;;;;;;;7.25;3.50;;;;;27.20;101724.00;;;;10423712;28;20782;-76
2021/07/19 08:52:31;;;;;;;4.75;4.15;;;;;25.90;101721.00;;;;10443143;28;20724;-75
2021/07/19 08:57:33;;;;;;;5.10;3.95;;;;;25.80;101707.00;;;;10481048;28;20190;-76
2021/07/19 09:02:35;;;;;;;6.68;3.40;;;;;27.50;101717.00;;;;10424279;28;20226;-75
2021/07/19 09:07:38;;;;;;;3.97;3.30;;;;;28.20;101714.00;;;;10467536;28;20201;-76
2021/07/19 09:12:45;;;;;;;3.97;3.30;;;;;28.50;101711.00;;;;10446733;28;20229;-75
2021/07/19 09:17:58;;;;;;;3.80;3.35;;;;;28.60;101716.00;;;;10440791;28;20189;-75
2021/07/19 09:23:00;;;;;;;6.30;3.50;;;;;28.30;101704.00;;;;10455481;28;20636;-76
2021/07/19 09:28:10;;;;;;;6.07;3.70;;;;;28.30;101708.00;;;;10451398;28;20592;-76
2021/07/19 09:33:22;;;;;;;4.30;3.10;;;;;28.70;101708.00;;;;10408597;28;20225;-76
2021/07/19 09:38:28;;;;;;;5.10;2.95;;;;;28.90;101707.00;;;;10406508;28;20190;-76
2021/07/19 09:43:32;;;;;;;6.65;3.78;;;;;29.10;101709.00;;;;10456924;28;20205;-76
2021/07/19 09:48:36;;;;;;;6.55;3.92;;;;;29.10;101699.00;;;;10454667;28;20202;-76
2021/07/19 09:53:45;;;;;;;7.43;4.10;;;;;29.30;101696.00;;;;10443839;28;20198;-76
2021/07/19 09:59:08;;;;;;;6.50;4.20;;;;;29.50;101691.00;;;;10461190;28;20194;-76
2021/07/19 10:04:11;;;;;;;5.05;3.80;;;;;29.40;101685.00;;;;10447100;28;20256;-76
2021/07/19 10:09:15;;;;;;;4.93;3.60;;;;;29.20;101684.00;;;;10409918;28;20206;-75
2021/07/19 10:14:24;;;;;;;4.85;4.05;;;;;29.30;101691.00;;;;10428016;28;20781;-76
2021/07/19 10:19:27;;;;;;;4.28;3.88;;;;;29.70;101683.00;;;;10459915;28;20193;-76
2021/07/19 10:24:29;;;;;;;6.47;3.35;;;;;30.10;101689.00;;;;10447877;28;20210;-76
2021/07/19 10:29:31;;;;;;;5.63;4.32;;;;;29.90;101685.00;;;;10439183;28;20210;-76
2021/07/19 10:34:33;;;;;;;6.15;4.97;;;;;30.30;101682.00;;;;10439257;28;20712;-76
2021/07/19 10:39:38;;;;;;;5.20;4.00;;;;;30.30;101681.00;;;;10449308;28;20227;-75
2021/07/19 10:44:43;;;;;;;5.28;4.78;;;;;30.40;101680.00;;;;10444830;28;20218;-76
2021/07/19 10:50:01;;;;;;;6.22;4.60;;;;;31.00;101679.00;;;;10470683;28;20263;-76
2021/07/19 10:55:07;;;;;;;5.40;4.53;;;;;31.60;101683.00;;;;10425244;28;20209;-75
2021/07/19 11:00:19;;;;;;;6.20;4.50;;;;;31.50;101681.00;;;;10426544;28;20193;-76
2021/07/19 11:05:21;;;;;;;6.82;4.40;;;;;31.40;101665.00;;;;10457735;28;20193;-76
2021/07/19 11:10:23;;;;;;;5.22;4.75;;;;;31.10;101668.00;;;;10454043;28;20221;-76
2021/07/19 11:15:39;;;;;;;4.78;4.38;;;;;31.10;101663.00;;;;10467851;28;20189;-75
2021/07/19 11:20:44;;;;;;;5.00;4.07;;;;;31.40;101652.00;;;;10453988;28;20619;-76
2021/07/19 11:25:46;;;;;;;5.45;4.95;;;;;31.40;101652.00;;;;10452908;28;20560;-75
2021/07/19 11:31:11;;;;;;;7.28;5.80;;;;;31.50;101646.00;;;;10484051;28;20567;-76
2021/07/19 11:36:22;;;;;;;6.47;4.90;;;;;31.50;101645.00;;;;10402292;28;20284;-76
2021/07/19 11:41:27;;;;;;;6.55;5.00;;;;;31.30;101636.00;;;;10457908;28;20208;-76
2021/07/19 11:46:39;;;;;;;5.90;4.80;;;;;31.30;101635.00;;;;10473257;28;20209;-76
2021/07/19 11:51:52;;;;;;;8.10;5.60;;;;;31.40;101636.00;;;;10483076;28;20217;-76
2021/07/19 11:56:55;;;;;;;9.02;4.90;;;;;31.50;101628.00;;;;10435945;28;20198;-76
2021/07/19 12:02:03;;;;;;;5.38;4.85;;;;;31.40;101630.00;;;;10460969;28;20600;-76
2021/07/19 12:07:07;;;;;;;6.93;5.20;;;;;31.60;101623.00;;;;10482451;28;20192;-76
2021/07/19 12:12:11;;;;;;;6.07;5.47;;;;;31.70;101619.00;;;;10421304;28;20221;-76
2021/07/19 12:17:13;;;;;;;7.20;5.57;;;;;31.70;101625.00;;;;10451720;28;20221;-76
2021/07/19 12:22:17;;;;;;;7.65;5.22;;;;;31.60;101625.00;;;;10430344;28;20191;-76
2021/07/19 12:27:19;;;;;;;8.13;6.22;;;;;31.60;101623.00;;;;10461221;28;20677;-76
2021/07/19 12:32:21;;;;;;;7.15;5.97;;;;;31.80;101618.00;;;;10446406;28;20233;-76
2021/07/19 12:37:24;;;;;;;7.43;5.82;;;;;32.10;101615.00;;;;10454024;28;20704;-76
2021/07/19 12:42:30;;;;;;;7.18;5.93;;;;;32.20;101619.00;;;;10448417;28;20197;-76
2021/07/19 12:47:51;;;;;;;7.53;6.65;;;;;32.30;101617.00;;;;10457361;28;20198;-75
2021/07/19 12:52:53;;;;;;;6.70;6.07;;;;;32.10;101601.00;;;;10458981;28;20193;-76
2021/07/19 12:57:56;;;;;;;7.90;5.85;;;;;32.20;101606.00;;;;10478114;28;20186;-76
2021/07/19 13:03:05;;;;;;;6.88;6.03;;;;;32.30;101600.00;;;;10440482;28;20297;-76
2021/07/19 13:08:07;;;;;;;6.93;6.22;;;;;32.40;101597.00;;;;10479268;28;20213;-76
2021/07/19 13:13:09;;;;;;;7.18;6.22;;;;;32.20;101606.00;;;;10495782;28;20280;-76
2021/07/19 13:18:14;;;;;;;7.65;6.13;;;;;30.70;101594.00;;;;10467575;28;20194;-76
2021/07/19 13:23:18;;;;;;;9.20;6.65;;;;;31.20;101588.00;;;;10458384;28;20186;-76
2021/07/19 13:28:22;;;;;;;8.40;6.72;;;;;31.40;101591.00;;;;10461470;28;20202;-75
2021/07/19 13:33:25;;;;;;;8.43;6.63;;;;;32.10;101590.00;;;;10440408;28;20220;-76
2021/07/19 13:38:42;;;;;;;8.60;6.20;;;;;32.40;101587.00;;;;10454013;28;20204;-76
2021/07/19 13:43:45;;;;;;;8.07;6.60;;;;;31.90;101588.00;;;;10475996;28;20205;-76
2021/07/19 13:48:47;;;;;;;6.95;6.25;;;;;33.00;101588.00;;;;10458791;28;20568;-76
2021/07/19 13:53:50;;;;;;;11.35;6.53;;;;;34.50;101587.00;;;;10474373;28;20194;-76
2021/07/19 13:58:52;;;;;;;8.75;6.82;;;;;36.50;101581.00;;;;10469899;28;20189;-75
2021/07/19 14:03:53;;;;;;;8.40;6.10;;;;;37.30;101585.00;;;;10464509;28;20198;-76
2021/07/19 14:08:55;;;;;;;8.20;6.40;;;;;34.30;101585.00;;;;10485670;28;20233;-76
2021/07/19 14:13:58;;;;;;;9.77;6.70;;;;;32.60;101592.00;;;;10448492;28;20194;-76
2021/07/19 14:19:04;;;;;;;7.45;5.68;;;;;35.90;101565.00;;;;10456277;28;20194;-76
2021/07/19 14:24:05;;;;;;;8.27;6.72;;;;;37.80;101564.00;;;;10428316;28;20675;-76
2021/07/19 14:29:07;;;;;;;8.38;6.53;;;;;37.60;101562.00;;;;10468007;28;20206;-76
2021/07/19 14:34:10;;;;;;;9.13;6.53;;;;;36.20;101561.00;;;;10467169;28;20715;-76
2021/07/19 14:39:12;;;;;;;7.40;6.50;;;;;37.70;101556.00;;;;10457029;28;20193;-76
2021/07/19 14:44:14;;;;;;;9.40;6.43;;;;;38.60;101554.00;;;;10459319;28;20664;-76
2021/07/19 14:49:16;;;;;;;8.57;7.00;;;;;39.30;101546.00;;;;10467776;28;20262;-75
2021/07/19 14:54:18;;;;;;;9.63;6.85;;;;;39.40;101553.00;;;;10455015;28;20199;-76
2021/07/19 14:59:20;;;;;;;10.63;6.65;;;;;36.80;101536.00;;;;10437640;28;20219;-76
2021/07/19 15:04:22;;;;;;;7.55;5.90;;;;;38.20;101535.00;;;;10467958;28;20648;-76
2021/07/19 15:09:24;;;;;;;8.35;6.13;;;;;38.90;101534.00;;;;10442408;28;20634;-75
2021/07/19 15:14:25;;;;;;;7.82;6.57;;;;;38.70;101529.00;;;;10461837;28;20796;-76
2021/07/19 15:19:27;;;;;;;8.20;6.25;;;;;38.90;101528.00;;;;10460462;28;20244;-75
2021/07/19 15:24:33;;;;;;;7.53;6.03;;;;;36.50;101534.00;;;;10452062;28;20748;-75
2021/07/19 15:29:34;;;;;;;9.00;6.90;;;;;37.70;101523.00;;;;10452011;28;20222;-76
2021/07/19 15:34:36;;;;;;;8.13;6.53;;;;;38.70;101519.00;;;;10455414;28;20214;-75
2021/07/19 15:39:38;;;;;;;10.00;5.90;;;;;37.60;101533.00;;;;10452986;28;20198;-76
2021/07/19 15:44:43;;;;;;;10.07;7.20;;;;;32.90;101537.00;;;;10474551;28;20204;-76
2021/07/19 15:49:44;;;;;;;9.02;7.03;;;;;30.50;101529.00;;;;10419498;28;20221;-76
2021/07/19 15:54:48;;;;;;;10.88;7.20;;;;;29.50;101533.00;;;;10447195;28;20703;-76
2021/07/19 15:59:50;;;;;;;8.80;6.80;;;;;29.20;101526.00;;;;10466060;28;20194;-76
2021/07/19 16:04:52;;;;;;;7.63;6.40;;;;;29.10;101533.00;;;;10426373;28;20205;-76
2021/07/19 16:09:54;;;;;;;8.02;6.95;;;;;28.60;101523.00;;;;10453520;28;20214;-76
2021/07/19 16:14:56;;;;;;;9.88;7.15;;;;;28.30;101518.00;;;;10447806;28;20197;-77
2021/07/19 16:20:01;;;;;;;7.38;6.57;;;;;28.30;101512.00;;;;10468417;28;20193;-77
2021/07/19 16:25:06;;;;;;;8.07;6.80;;;;;28.00;101508.00;;;;10456351;28;20202;-77
2021/07/19 16:30:10;;;;;;;7.35;6.35;;;;;27.80;101514.00;;;;10444178;28;20822;-76
2021/07/19 16:35:13;;;;;;;9.43;7.07;;;;;27.60;101510.00;;;;10480619;28;20933;-76
2021/07/19 16:40:15;;;;;;;7.60;6.15;;;;;27.50;101509.00;;;;10461461;28;20556;-76
2021/07/19 16:50:22;;;;;;;11.63;7.10;;;;;26.70;101506.00;;;;10466623;28;20245;-76
2021/07/19 16:55:25;;;;;;;10.23;6.65;;;;;26.60;101506.00;;;;10435210;28;20542;-77
2021/07/19 17:00:28;;;;;;;11.75;7.18;;;;;26.60;101503.00;;;;10461380;28;20700;-77
2021/07/19 17:05:30;;;;;;;8.93;7.70;;;;;26.60;101502.00;;;;10441937;28;20236;-77
2021/07/19 17:10:32;;;;;;;8.98;7.47;;;;;26.60;101500.00;;;;10454540;28;20478;-77
2021/07/19 17:15:34;;;;;;;11.00;7.82;;;;;26.50;101491.00;;;;10441074;28;20601;-77
2021/07/19 17:20:36;;;;;;;7.65;6.85;;;;;26.40;101488.00;;;;10418701;28;20190;-77
2021/07/19 17:25:38;;;;;;;9.57;6.95;;;;;26.30;101493.00;;;;10447573;28;20228;-77
2021/07/19 17:30:43;;;;;;;10.70;6.43;;;;;26.20;101488.00;;;;10414532;28;20214;-77
2021/07/19 17:35:45;;;;;;;7.50;6.25;;;;;26.10;101488.00;;;;10468710;28;20225;-77
2021/07/19 17:40:47;;;;;;;7.55;6.32;;;;;26.10;101484.00;;;;10433995;28;20194;-77
2021/07/19 17:45:50;;;;;;;8.50;6.55;;;;;26.10;101478.00;;;;10403768;28;20680;-77
2021/07/19 17:50:52;;;;;;;9.82;6.85;;;;;25.90;101483.00;;;;10443642;28;20616;-77
2021/07/19 17:55:54;;;;;;;10.75;7.25;;;;;25.70;101477.00;;;;10443823;28;20205;-77
2021/07/19 18:00:56;;;;;;;10.88;7.63;;;;;25.50;101481.00;;;;10411973;28;20600;-77
2021/07/19 18:05:58;;;;;;;8.50;7.20;;;;;25.40;101479.00;;;;10473776;28;20193;-77
2021/07/19 18:11:00;;;;;;;8.57;7.40;;;;;25.30;101483.00;;;;10449835;28;20245;-77
2021/07/19 18:16:05;;;;;;;8.55;7.03;;;;;25.00;101476.00;;;;10441705;28;20200;-77
2021/07/19 18:21:08;;;;;;;10.38;7.55;;;;;24.70;101479.00;;;;10471028;28;20220;-77
2021/07/19 18:26:23;;;;;;;9.65;7.10;;;;;24.50;101487.00;;;;10447616;28;20236;-77
2021/07/19 18:31:26;;;;;;;8.38;6.88;;;;;24.30;101486.00;;;;10474798;28;20553;-77
2021/07/19 18:36:28;;;;;;;11.15;8.55;;;;;24.00;101494.00;;;;10435531;28;21063;-77
2021/07/19 18:41:30;;;;;;;10.55;8.15;;;;;23.90;101488.00;;;;10438096;28;20190;-77
2021/07/19 18:46:32;;;;;;;11.85;8.15;;;;;23.90;101496.00;;;;10438879;28;20212;-76
2021/07/19 18:51:34;;;;;;;8.52;7.30;;;;;23.70;101499.00;;;;10452065;28;20218;-77
2021/07/19 18:56:36;;;;;;;11.73;8.70;;;;;23.50;101500.00;;;;10445926;28;20194;-77
2021/07/19 19:01:38;;;;;;;11.27;8.48;;;;;23.30;101494.00;;;;10478306;28;20187;-77
2021/07/19 19:06:40;;;;;;;10.75;8.35;;;;;23.10;101493.00;;;;10444985;28;20194;-77
2021/07/19 19:11:42;;;;;;;10.10;8.15;;;;;22.80;101496.00;;;;10458670;28;20210;-76
2021/07/19 19:16:44;;;;;;;12.45;8.23;;;;;22.60;101492.00;;;;10440588;28;20232;-77
2021/07/19 19:21:46;;;;;;;10.48;8.15;;;;;22.40;101491.00;;;;10469419;28;20283;-77
2021/07/19 19:26:48;;;;;;;10.40;8.18;;;;;22.20;101488.00;;;;10440229;28;20976;-77
2021/07/19 19:31:50;;;;;;;12.57;8.30;;;;;21.90;101489.00;;;;10433167;28;20691;-77
2021/07/19 19:36:52;;;;;;;12.60;9.45;;;;;21.80;101486.00;;;;10454300;28;20197;-77
2021/07/19 19:41:54;;;;;;;11.63;8.25;;;;;21.50;101487.00;;;;10472584;28;20206;-77
2021/07/19 19:46:56;;;;;;;11.93;9.00;;;;;21.30;101491.00;;;;10468962;28;20205;-76
2021/07/19 19:51:59;;;;;;;11.52;8.55;;;;;21.10;101488.00;;;;10463203;28;20262;-76
2021/07/19 19:57:03;;;;;;;12.45;8.52;;;;;21.00;101490.00;;;;10464736;28;20238;-77
2021/07/19 20:02:06;;;;;;;11.75;8.85;;;;;20.80;101500.00;;;;10445542;28;20194;-77
2021/07/19 20:07:09;;;;;;;11.07;8.98;;;;;20.70;101503.00;;;;10483231;28;20194;-76
2021/07/19 20:12:11;;;;;;;15.95;9.18;;;;;20.50;101506.00;;;;10470605;28;20714;-77
2021/07/19 20:17:14;;;;;;;13.60;8.95;;;;;20.40;101500.00;;;;10452360;28;20197;-77
2021/07/19 20:22:16;;;;;;;14.70;9.35;;;;;20.30;101510.00;;;;10448023;28;20197;-77
2021/07/19 20:27:17;;;;;;;12.27;8.63;;;;;20.10;101513.00;;;;10458133;28;20255;-76
2021/07/19 20:32:20;;;;;;;13.98;9.60;;;;;20.00;101526.00;;;;10423384;28;20620;-76
2021/07/19 20:37:21;;;;;;;12.60;8.85;;;;;19.80;101519.00;;;;10459715;28;20672;-76
2021/07/19 20:42:23;;;;;;;15.27;9.35;;;;;19.70;101538.00;;;;10474587;28;20773;-77
2021/07/19 20:47:25;;;;;;;13.18;10.23;;;;;19.70;101538.00;;;;10443308;28;20255;-76
2021/07/19 20:52:27;;;;;;;13.68;10.00;;;;;19.60;101542.00;;;;10448633;28;20214;-77
2021/07/19 20:57:29;;;;;;;14.20;9.25;;;;;19.50;101542.00;;;;10443021;28;20243;-76
2021/07/19 21:02:31;;;;;;;13.48;8.95;;;;;19.40;101540.00;;;;10448277;28;20194;-77
2021/07/19 21:07:34;;;;;;;15.02;9.45;;;;;19.30;101541.00;;;;10472560;28;20285;-76
2021/07/19 21:12:37;;;;;;;12.68;9.27;;;;;19.20;101541.00;;;;10454588;28;20287;-77
2021/07/19 21:17:41;;;;;;;13.77;9.05;;;;;19.10;101543.00;;;;10443598;28;20197;-77
2021/07/19 21:22:43;;;;;;;14.45;9.88;;;;;19.00;101553.00;;;;10428014;28;20821;-77
2021/07/19 21:27:45;;;;;;;12.80;9.18;;;;;19.00;101557.00;;;;10469616;28;20645;-76
2021/07/19 21:32:47;;;;;;;14.35;10.07;;;;;18.90;101554.00;;;;10444871;28;20229;-76
2021/07/19 21:37:49;;;;;;;12.50;9.95;;;;;18.80;101559.00;;;;10431697;28;20209;-76
2021/07/19 21:42:51;;;;;;;13.07;10.18;;;;;18.80;101560.00;;;;10439787;28;20255;-77
2021/07/19 21:47:53;;;;;;;16.40;10.68;;;;;18.70;101568.00;;;;10459488;28;20362;-76
2021/07/19 21:52:55;;;;;;;15.93;10.30;;;;;18.70;101567.00;;;;10468096;28;20685;-77
2021/07/19 21:57:57;;;;;;;13.43;9.88;;;;;18.60;101570.00;;;;10441543;28;20881;-77
2021/07/19 22:02:59;;;;;;;14.88;10.55;;;;;18.60;101574.00;;;;10441278;28;20186;-76
2021/07/19 22:08:03;;;;;;;15.20;11.30;;;;;18.50;101578.00;;;;10451709;28;20197;-76
2021/07/19 22:13:06;;;;;;;16.27;11.05;;;;;18.40;101570.00;;;;10453214;28;20221;-77
2021/07/19 22:18:13;;;;;;;18.73;10.90;;;;;18.30;101575.00;;;;10450019;28;20201;-77
2021/07/19 22:23:16;;;;;;;15.63;10.07;;;;;18.20;101574.00;;;;10453073;28;20285;-76
2021/07/19 22:28:18;;;;;;;16.67;11.35;;;;;18.20;101577.00;;;;10421970;28;20224;-77
2021/07/19 22:33:23;;;;;;;16.58;11.70;;;;;18.10;101573.00;;;;10448496;28;20210;-76
2021/07/19 22:38:25;;;;;;;14.95;11.00;;;;;18.10;101575.00;;;;10458850;28;20541;-76
2021/07/19 22:43:26;;;;;;;12.35;10.30;;;;;18.00;101579.00;;;;10451633;28;20960;-77
2021/07/19 22:48:28;;;;;;;14.70;11.73;;;;;18.00;101576.00;;;;10455473;28;20201;-77
2021/07/19 22:53:30;;;;;;;15.13;10.60;;;;;17.90;101584.00;;;;10429141;28;20684;-76
2021/07/19 22:58:32;;;;;;;15.23;10.80;;;;;17.70;101595.00;;;;10419951;28;20209;-77
2021/07/19 23:03:34;;;;;;;15.73;10.85;;;;;17.60;101598.00;;;;10467210;28;20190;-76
2021/07/19 23:08:37;;;;;;;19.15;11.38;;;;;17.60;101588.00;;;;10453599;28;20190;-76
2021/07/19 23:13:39;;;;;;;26.48;11.90;;;;;17.50;101593.00;;;;10458710;28;20218;-76
2021/07/19 23:18:41;;;;;;;14.13;11.40;;;;;17.50;101590.00;;;;10477833;28;20187;-76
2021/07/19 23:23:43;;;;;;;16.92;11.55;;;;;17.40;101584.00;;;;10418670;28;20227;-76
2021/07/19 23:28:45;;;;;;;18.35;11.55;;;;;17.30;101586.00;;;;10471805;28;20592;-76
2021/07/19 23:33:47;;;;;;;18.03;11.90;;;;;17.20;101581.00;;;;10452819;28;20704;-76
2021/07/19 23:38:48;;;;;;;15.25;11.02;;;;;17.10;101575.00;;;;10441208;28;20225;-76
2021/07/19 23:43:50;;;;;;;16.73;12.00;;;;;17.00;101595.00;;;;10426448;28;20212;-76
2021/07/19 23:48:52;;;;;;;19.67;12.13;;;;;16.90;101583.00;;;;10434099;28;20252;-76
2021/07/19 23:53:55;;;;;;;20.83;12.33;;;;;16.90;101588.00;;;;10476981;28;20232;-76
2021/07/19 23:58:57;;;;;;;15.57;11.73;;;;;16.80;101582.00;;;;10442182;28;20586;-76
